createdAt,value
2019-04-10T00:01:09.756Z,9.80
2019-04-10T00:03:41.740Z,9.80
2019-04-10T00:06:08.787Z,10.70
2019-04-10T00:08:37.324Z,9.80
2019-04-10T00:11:05.941Z,9.80
2019-04-10T00:13:34.418Z,9.80
2019-04-10T00:16:03.579Z,9.70
2019-04-10T00:18:32.122Z,9.70
2019-04-10T00:21:00.832Z,9.60
2019-04-10T00:23:29.292Z,9.60
2019-04-10T00:25:57.706Z,9.50
2019-04-10T00:28:26.107Z,9.50
2019-04-10T00:30:55.574Z,9.50
2019-04-10T00:33:24.964Z,9.50
2019-04-10T00:35:53.987Z,9.50
2019-04-10T00:38:22.539Z,9.50
2019-04-10T00:40:51.937Z,9.60
2019-04-10T00:43:20.442Z,9.60
2019-04-10T00:45:49.415Z,9.60
2019-04-10T00:48:17.919Z,9.60
2019-04-10T00:50:46.584Z,9.60
2019-04-10T00:53:15.122Z,10.20
2019-04-10T00:55:44.053Z,9.70
2019-04-10T00:58:12.511Z,9.70
2019-04-10T01:00:41.218Z,9.70
2019-04-10T01:03:10.070Z,9.70
2019-04-10T01:05:39.545Z,9.80
2019-04-10T01:08:08.688Z,9.80
2019-04-10T01:10:37.323Z,9.80
2019-04-10T01:13:05.735Z,9.80
2019-04-10T01:15:34.503Z,9.80
2019-04-10T01:18:02.919Z,9.80
2019-04-10T01:20:31.379Z,9.80
2019-04-10T01:22:59.851Z,10.00
2019-04-10T01:25:28.382Z,9.80
2019-04-10T01:27:57.130Z,9.80
2019-04-10T01:30:26.408Z,9.70
2019-04-10T01:32:54.959Z,9.70
2019-04-10T01:35:24.464Z,8.90
2019-04-10T01:37:57.847Z,9.60
2019-04-10T01:40:23.448Z,9.60
2019-04-10T01:43:02.465Z,9.60
2019-04-10T01:45:22.047Z,9.50
2019-04-10T01:47:51.206Z,9.50
2019-04-10T01:50:20.100Z,9.50
2019-04-10T01:52:49.143Z,9.40
2019-04-10T01:55:25.358Z,9.40
2019-04-10T01:57:48.418Z,9.40
2019-04-10T02:00:19.538Z,9.40
2019-04-10T02:02:53.996Z,9.30
2019-04-10T02:05:22.845Z,9.30
2019-04-10T02:08:02.133Z,9.30
2019-04-10T02:10:40.844Z,9.30
2019-04-10T02:13:09.472Z,9.20
2019-04-10T02:15:38.462Z,9.20
2019-04-10T02:18:07.049Z,9.20
2019-04-10T02:20:35.450Z,9.10
2019-04-10T02:23:03.926Z,9.10
2019-04-10T02:25:32.705Z,9.10
2019-04-10T02:28:20.772Z,9.10
2019-04-10T02:30:50.108Z,9.10
2019-04-10T02:33:18.725Z,9.00
2019-04-10T02:35:47.657Z,9.00
2019-04-10T02:38:30.958Z,9.00
2019-04-10T02:40:47.467Z,9.20
2019-04-10T02:43:16.430Z,9.00
2019-04-10T02:45:44.932Z,8.90
2019-04-10T02:48:14.881Z,9.00
2019-04-10T02:50:44.935Z,8.90
2019-04-10T02:53:15.369Z,8.90
2019-04-10T02:55:43.937Z,8.90
2019-04-10T02:58:14.069Z,8.90
2019-04-10T03:00:43.991Z,8.90
2019-04-10T03:03:13.854Z,8.90
2019-04-10T03:05:42.705Z,8.90
2019-04-10T03:08:12.993Z,8.80
2019-04-10T03:10:48.669Z,8.90
2019-04-10T03:13:13.569Z,8.80
2019-04-10T03:15:43.488Z,9.00
2019-04-10T03:18:12.739Z,8.90
2019-04-10T03:20:42.583Z,8.80
2019-04-10T03:23:11.547Z,8.80
2019-04-10T03:25:40.031Z,8.80
2019-04-10T03:28:09.109Z,8.70
2019-04-10T03:30:39.451Z,9.00
2019-04-10T03:33:19.116Z,8.70
2019-04-10T03:35:48.098Z,8.70
2019-04-10T03:38:18.168Z,8.80
2019-04-10T03:40:46.679Z,8.70
2019-04-10T03:43:15.096Z,8.60
2019-04-10T03:45:44.479Z,8.50
2019-04-10T03:48:13.788Z,8.50
2019-04-10T03:50:42.383Z,8.60
2019-04-10T03:53:10.906Z,8.60
2019-04-10T03:55:39.390Z,8.60
2019-04-10T03:58:07.838Z,8.60
2019-04-10T04:00:36.576Z,8.50
2019-04-10T04:03:04.989Z,8.50
2019-04-10T04:05:33.410Z,8.50
2019-04-10T04:08:01.883Z,8.50
2019-04-10T04:10:30.768Z,8.50
2019-04-10T04:13:00.137Z,8.40
2019-04-10T04:15:28.751Z,8.40
2019-04-10T04:17:57.209Z,8.50
2019-04-10T04:20:26.561Z,8.40
2019-04-10T04:22:57.076Z,8.50
2019-04-10T04:25:26.017Z,8.30
2019-04-10T04:27:54.545Z,8.30
2019-04-10T04:30:22.989Z,8.30
2019-04-10T04:32:51.394Z,8.20
2019-04-10T04:35:20.027Z,8.20
2019-04-10T04:37:48.723Z,8.10
2019-04-10T04:40:17.532Z,8.10
2019-04-10T04:42:47.069Z,8.10
2019-04-10T04:45:16.032Z,8.00
2019-04-10T04:47:44.987Z,8.00
2019-04-10T04:50:14.019Z,8.00
2019-04-10T04:52:43.444Z,7.90
2019-04-10T04:55:12.247Z,7.90
2019-04-10T04:57:41.998Z,7.90
2019-04-10T05:00:17.277Z,7.90
2019-04-10T05:02:46.942Z,7.90
2019-04-10T05:05:16.401Z,7.90
2019-04-10T05:07:54.620Z,7.90
2019-04-10T05:10:15.402Z,7.90
2019-04-10T05:12:45.091Z,7.90
2019-04-10T05:15:13.769Z,8.00
2019-04-10T05:17:42.193Z,7.90
2019-04-10T05:20:11.179Z,8.00
2019-04-10T05:22:39.748Z,8.00
2019-04-10T05:25:08.997Z,8.00
2019-04-10T05:27:37.471Z,8.00
2019-04-10T05:30:06.710Z,8.10
2019-04-10T05:32:35.446Z,8.10
2019-04-10T05:35:08.178Z,8.10
2019-04-10T05:37:36.296Z,8.20
2019-04-10T05:40:07.582Z,8.20
2019-04-10T05:42:37.287Z,8.20
2019-04-10T05:45:07.177Z,8.30
2019-04-10T05:47:36.612Z,8.30
2019-04-10T05:50:06.351Z,8.40
2019-04-10T05:52:35.346Z,8.40
2019-04-10T05:55:04.471Z,8.40
2019-04-10T05:57:32.959Z,8.50
2019-04-10T06:00:02.724Z,8.50
2019-04-10T06:02:32.111Z,8.60
2019-04-10T06:05:00.730Z,8.60
2019-04-10T06:07:29.420Z,8.70
2019-04-10T06:10:05.010Z,8.70
2019-04-10T06:12:30.654Z,8.80
2019-04-10T06:14:59.271Z,8.80
2019-04-10T06:17:27.683Z,8.80
2019-04-10T06:19:56.662Z,8.90
2019-04-10T06:22:26.314Z,8.90
2019-04-10T06:24:54.882Z,9.00
2019-04-10T06:27:24.176Z,9.00
2019-04-10T06:29:53.171Z,9.10
2019-04-10T06:32:21.691Z,9.10
2019-04-10T06:34:50.292Z,9.00
2019-04-10T06:37:18.765Z,9.00
2019-04-10T06:39:47.219Z,9.00
2019-04-10T06:42:16.350Z,9.00
2019-04-10T06:44:45.975Z,9.10
2019-04-10T06:47:14.603Z,9.10
2019-04-10T06:49:43.002Z,9.10
2019-04-10T06:52:11.851Z,9.10
2019-04-10T06:54:40.717Z,9.20
2019-04-10T06:57:10.373Z,9.10
2019-04-10T06:59:39.855Z,9.20
2019-04-10T07:02:16.636Z,9.20
2019-04-10T07:04:45.969Z,9.20
2019-04-10T07:07:12.453Z,7.50
2019-04-10T07:09:39.946Z,9.20
2019-04-10T07:12:08.826Z,9.30
2019-04-10T07:14:38.470Z,9.40
2019-04-10T07:17:08.866Z,9.40
2019-04-10T07:19:37.316Z,9.50
2019-04-10T07:22:11.145Z,9.50
2019-04-10T07:24:39.573Z,9.70
2019-04-10T07:27:06.365Z,9.80
2019-04-10T07:29:34.759Z,10.00
2019-04-10T07:32:07.754Z,10.10
2019-04-10T07:34:34.118Z,11.30
2019-04-10T07:37:02.749Z,10.40
2019-04-10T07:39:33.534Z,10.70
2019-04-10T07:42:02.100Z,10.60
2019-04-10T07:44:30.554Z,10.70
2019-04-10T07:47:00.704Z,10.80
2019-04-10T07:49:31.158Z,10.90
2019-04-10T07:51:59.234Z,10.80
2019-04-10T07:54:28.757Z,11.00
2019-04-10T07:56:57.919Z,11.10
2019-04-10T07:59:27.172Z,11.70
2019-04-10T08:01:55.957Z,11.20
2019-04-10T08:04:24.469Z,11.20
2019-04-10T08:06:52.902Z,11.30
2019-04-10T08:09:21.300Z,11.30
2019-04-10T08:11:50.924Z,11.40
2019-04-10T08:14:19.661Z,11.50
2019-04-10T08:16:48.190Z,11.50
2019-04-10T08:19:16.708Z,11.40
2019-04-10T08:21:45.086Z,11.50
2019-04-10T08:24:13.809Z,11.50
2019-04-10T08:26:43.029Z,11.40
2019-04-10T08:29:12.056Z,11.30
2019-04-10T08:31:40.521Z,11.30
2019-04-10T08:34:08.942Z,11.40
2019-04-10T08:36:37.729Z,11.40
2019-04-10T08:39:07.402Z,11.30
2019-04-10T08:44:04.473Z,11.20
2019-04-10T08:46:33.624Z,11.10
2019-04-10T08:49:02.179Z,11.10
2019-04-10T08:51:31.062Z,11.00
2019-04-10T08:54:00.563Z,11.10
2019-04-10T08:56:30.199Z,11.10
2019-04-10T08:58:59.319Z,11.20
2019-04-10T09:01:28.060Z,11.30
2019-04-10T09:03:57.467Z,11.30
2019-04-10T09:06:25.937Z,11.30
2019-04-10T09:08:54.357Z,11.40
2019-04-10T09:11:26.525Z,11.50
2019-04-10T09:13:53.060Z,11.50
2019-04-10T09:16:22.528Z,11.60
2019-04-10T09:18:51.630Z,11.60
2019-04-10T09:21:20.011Z,11.70
2019-04-10T09:23:52.793Z,11.80
2019-04-10T09:26:18.643Z,11.90
2019-04-10T09:28:47.051Z,12.00
2019-04-10T09:31:15.796Z,12.10
2019-04-10T09:33:45.297Z,12.30
2019-04-10T09:36:13.743Z,12.40
2019-04-10T09:38:43.932Z,12.50
2019-04-10T09:41:12.485Z,12.70
2019-04-10T09:43:42.067Z,12.80
2019-04-10T09:46:11.262Z,13.00
2019-04-10T09:48:40.075Z,13.20
2019-04-10T09:51:09.670Z,13.50
2019-04-10T09:53:39.190Z,13.70
2019-04-10T09:56:07.682Z,13.80
2019-04-10T09:58:36.360Z,13.80
2019-04-10T10:01:08.237Z,13.90
2019-04-10T10:03:37.224Z,14.00
2019-04-10T10:06:06.900Z,14.20
2019-04-10T10:08:35.948Z,14.30
2019-04-10T10:11:04.595Z,14.40
2019-04-10T10:13:33.955Z,14.30
2019-04-10T10:16:02.871Z,14.30
2019-04-10T10:18:31.548Z,14.40
2019-04-10T10:21:00.019Z,14.50
2019-04-10T10:23:29.613Z,14.60
2019-04-10T10:25:58.234Z,14.70
2019-04-10T10:28:27.045Z,14.70
2019-04-10T10:30:55.736Z,14.90
2019-04-10T10:33:24.258Z,15.00
2019-04-10T10:35:53.573Z,15.10
2019-04-10T10:38:23.080Z,15.20
2019-04-10T10:40:52.771Z,15.40
2019-04-10T10:43:22.463Z,15.30
2019-04-10T10:45:51.294Z,15.30
2019-04-10T10:48:19.916Z,15.30
2019-04-10T10:50:48.451Z,15.30
2019-04-10T10:53:16.890Z,15.30
2019-04-10T10:55:45.534Z,15.40
2019-04-10T10:58:14.114Z,15.50
2019-04-10T11:00:43.468Z,15.60
2019-04-10T11:03:11.909Z,15.60
2019-04-10T11:05:40.379Z,15.70
2019-04-10T11:08:08.980Z,15.60
2019-04-10T11:10:37.536Z,15.60
2019-04-10T11:13:06.589Z,15.70
2019-04-10T11:15:37.708Z,15.80
2019-04-10T11:18:06.429Z,15.80
2019-04-10T11:20:36.292Z,15.90
2019-04-10T11:23:06.149Z,15.80
2019-04-10T11:25:35.846Z,15.90
2019-04-10T11:28:08.999Z,15.80
2019-04-10T11:30:37.467Z,15.80
2019-04-10T11:33:06.210Z,15.80
2019-04-10T11:35:34.939Z,15.80
2019-04-10T11:38:05.794Z,15.80
2019-04-10T11:40:34.301Z,15.70
2019-04-10T11:43:05.098Z,15.70
2019-04-10T11:45:41.314Z,15.80
2019-04-10T11:48:04.740Z,15.90
2019-04-10T11:50:34.824Z,15.90
2019-04-10T11:53:04.530Z,15.90
2019-04-10T11:55:42.854Z,16.00
2019-04-10T11:58:03.148Z,16.10
2019-04-10T12:00:50.708Z,16.20
2019-04-10T12:03:12.933Z,16.30
2019-04-10T12:06:04.241Z,16.30
2019-04-10T12:13:30.315Z,16.40
2019-04-10T12:15:58.980Z,16.40
2019-04-10T12:18:27.705Z,16.60
2019-04-10T12:20:57.636Z,16.60
2019-04-10T12:23:27.141Z,16.70
2019-04-10T12:25:55.720Z,16.60
2019-04-10T12:28:24.118Z,16.60
2019-04-10T12:30:53.366Z,16.70
2019-04-10T12:33:21.835Z,16.80
2019-04-10T12:35:50.250Z,16.90
2019-04-10T12:38:19.325Z,16.90
2019-04-10T12:40:47.833Z,16.90
2019-04-10T12:43:16.744Z,16.90
2019-04-10T12:45:46.442Z,16.90
2019-04-10T12:48:14.927Z,16.90
2019-04-10T12:50:43.694Z,16.90
2019-04-10T12:53:12.207Z,16.90
2019-04-10T12:55:41.818Z,16.80
2019-04-10T12:58:13.578Z,16.70
2019-04-10T13:00:42.838Z,16.70
2019-04-10T13:03:11.470Z,16.70
2019-04-10T13:05:41.035Z,16.70
2019-04-10T13:08:19.124Z,16.80
2019-04-10T13:10:43.472Z,16.90
2019-04-10T13:13:13.550Z,16.90
2019-04-10T13:15:42.154Z,16.90
2019-04-10T13:18:10.607Z,16.80
2019-04-10T13:20:39.908Z,16.70
2019-04-10T13:23:08.687Z,16.70
2019-04-10T13:25:37.110Z,16.60
2019-04-10T13:28:05.605Z,16.60
2019-04-10T13:30:44.685Z,16.50
2019-04-10T13:33:05.326Z,16.40
2019-04-10T13:35:34.390Z,16.40
2019-04-10T13:38:03.195Z,16.30
2019-04-10T13:40:32.030Z,16.30
2019-04-10T13:43:01.266Z,16.20
2019-04-10T13:45:31.066Z,16.20
2019-04-10T13:47:59.783Z,16.20
2019-04-10T13:50:28.604Z,16.10
2019-04-10T13:52:57.526Z,16.10
2019-04-10T13:55:26.413Z,16.10
2019-04-10T13:57:55.070Z,16.00
2019-04-10T14:00:31.314Z,15.90
2019-04-10T14:03:19.755Z,15.90
2019-04-10T14:05:49.438Z,15.90
2019-04-10T14:08:18.655Z,15.80
2019-04-10T14:10:47.370Z,15.70
2019-04-10T14:13:15.806Z,15.60
2019-04-10T14:15:44.356Z,15.50
2019-04-10T14:18:12.934Z,15.40
2019-04-10T14:20:41.593Z,15.30
2019-04-10T14:23:12.553Z,15.20
2019-04-10T14:26:00.480Z,15.20
2019-04-10T14:28:31.254Z,15.20
2019-04-10T14:31:02.025Z,15.20
2019-04-10T14:33:30.653Z,15.10
2019-04-10T14:35:59.982Z,15.10
2019-04-10T14:38:28.684Z,15.10
2019-04-10T14:40:57.739Z,15.10
2019-04-10T14:43:26.673Z,15.00
2019-04-10T14:45:55.074Z,15.00
2019-04-10T14:48:24.441Z,15.00
2019-04-10T14:50:53.151Z,15.10
2019-04-10T14:53:22.658Z,15.10
2019-04-10T14:55:51.506Z,15.10
2019-04-10T14:58:24.009Z,15.10
2019-04-10T15:00:50.351Z,15.30
2019-04-10T15:03:20.243Z,15.40
2019-04-10T15:05:52.236Z,15.60
2019-04-10T15:08:19.682Z,15.80
2019-04-10T15:10:48.426Z,15.90
2019-04-10T15:13:20.781Z,16.00
2019-04-10T15:15:48.344Z,16.10
2019-04-10T15:18:16.929Z,16.20
2019-04-10T15:20:45.667Z,16.20
2019-04-10T15:23:15.286Z,16.10
2019-04-10T15:25:43.866Z,16.00
2019-04-10T15:28:12.295Z,16.00
2019-04-10T15:30:40.699Z,15.90
2019-04-10T15:33:10.124Z,15.80
2019-04-10T15:35:38.611Z,15.70
2019-04-10T15:38:07.030Z,15.60
2019-04-10T15:40:36.461Z,15.60
2019-04-10T15:43:05.149Z,15.50
2019-04-10T15:45:33.619Z,15.40
2019-04-10T15:48:03.117Z,15.40
2019-04-10T15:50:32.597Z,15.30
2019-04-10T15:53:02.102Z,15.30
2019-04-10T15:55:30.671Z,15.30
2019-04-10T15:58:01.213Z,15.30
2019-04-10T16:00:29.487Z,15.20
2019-04-10T16:02:57.922Z,15.10
2019-04-10T16:05:26.331Z,15.10
2019-04-10T16:07:55.317Z,15.00
2019-04-10T16:10:28.899Z,14.90
2019-04-10T16:13:02.511Z,14.80
2019-04-10T16:15:36.665Z,14.70
2019-04-10T16:18:13.548Z,14.70
2019-04-10T16:20:43.195Z,14.60
2019-04-10T16:23:14.273Z,14.60
2019-04-10T16:25:44.937Z,14.50
2019-04-10T16:28:14.509Z,14.50
2019-04-10T16:30:43.254Z,14.40
2019-04-10T16:33:11.660Z,14.30
2019-04-10T16:35:40.187Z,14.30
2019-04-10T16:38:08.710Z,14.20
2019-04-10T16:40:38.610Z,14.20
2019-04-10T16:43:07.946Z,14.10
2019-04-10T16:45:36.687Z,14.00
2019-04-10T16:48:06.353Z,14.00
2019-04-10T16:50:36.279Z,13.90
2019-04-10T16:53:05.854Z,13.80
2019-04-10T16:55:34.626Z,13.70
2019-04-10T16:58:03.187Z,13.60
2019-04-10T17:00:31.756Z,13.50
2019-04-10T17:03:00.215Z,13.50
2019-04-10T17:05:28.632Z,13.40
2019-04-10T17:07:57.343Z,13.40
2019-04-10T17:10:28.993Z,13.30
2019-04-10T17:12:58.281Z,13.20
2019-04-10T17:15:28.063Z,13.20
2019-04-10T17:17:56.915Z,13.10
2019-04-10T17:20:26.644Z,13.00
2019-04-10T17:22:56.355Z,13.00
2019-04-10T17:25:26.349Z,12.90
2019-04-10T17:27:56.176Z,12.80
2019-04-10T17:30:25.482Z,12.80
2019-04-10T17:32:54.338Z,12.70
2019-04-10T17:35:23.372Z,12.60
2019-04-10T17:37:51.847Z,12.60
2019-04-10T17:40:30.117Z,12.50
2019-04-10T17:42:50.778Z,12.50
2019-04-10T17:45:20.263Z,12.40
2019-04-10T17:47:49.351Z,12.40
2019-04-10T17:50:18.462Z,12.30
2019-04-10T17:52:47.264Z,12.30
2019-04-10T17:55:15.868Z,12.20
2019-04-10T17:58:05.354Z,12.20
2019-04-10T18:00:35.564Z,12.20
2019-04-10T18:03:05.325Z,12.10
2019-04-10T18:05:34.955Z,12.10
2019-04-10T18:08:03.577Z,12.10
2019-04-10T18:10:43.850Z,12.10
2019-04-10T18:13:02.971Z,12.00
2019-04-10T18:15:32.429Z,11.90
2019-04-10T18:18:01.091Z,11.90
2019-04-10T18:20:29.919Z,11.90
2019-04-10T18:22:58.731Z,11.80
2019-04-10T18:25:27.693Z,11.80
2019-04-10T18:27:56.912Z,11.80
2019-04-10T18:30:25.443Z,11.70
2019-04-10T18:32:54.059Z,11.70
2019-04-10T18:35:22.719Z,11.70
2019-04-10T18:37:51.145Z,11.70
2019-04-10T18:40:19.573Z,11.60
2019-04-10T18:42:48.043Z,11.60
2019-04-10T18:45:17.529Z,11.60
2019-04-10T18:47:46.136Z,11.60
2019-04-10T18:50:14.738Z,11.50
2019-04-10T18:52:43.512Z,11.50
2019-04-10T18:55:12.230Z,11.40
2019-04-10T18:57:41.077Z,11.40
2019-04-10T19:00:28.235Z,11.40
2019-04-10T19:02:59.268Z,11.40
2019-04-10T19:05:29.958Z,11.40
2019-04-10T19:07:58.765Z,11.30
2019-04-10T19:10:28.584Z,11.30
2019-04-10T19:12:57.324Z,11.30
2019-04-10T19:15:25.865Z,11.30
2019-04-10T19:17:55.232Z,11.20
2019-04-10T19:20:24.676Z,11.20
2019-04-10T19:22:53.358Z,11.20
2019-04-10T19:25:22.727Z,11.10
2019-04-10T19:27:51.224Z,11.10
2019-04-10T19:30:24.193Z,11.00
2019-04-10T19:32:52.591Z,11.00
2019-04-10T19:35:21.419Z,11.00
2019-04-10T19:37:51.298Z,11.00
2019-04-10T19:40:19.989Z,11.00
2019-04-10T19:42:49.334Z,10.90
2019-04-10T19:45:17.856Z,10.90
2019-04-10T19:47:46.411Z,10.90
2019-04-10T19:50:15.169Z,10.90
2019-04-10T19:52:44.641Z,10.90
2019-04-10T19:55:13.580Z,10.90
2019-04-10T19:57:42.087Z,10.90
2019-04-10T20:00:12.620Z,10.90
2019-04-10T20:02:41.715Z,10.90
2019-04-10T20:05:10.498Z,10.90
2019-04-10T20:07:38.950Z,10.90
2019-04-10T20:10:08.795Z,10.90
2019-04-10T20:12:37.412Z,10.90
2019-04-10T20:15:10.058Z,10.90
2019-04-10T20:17:38.611Z,10.90
2019-04-10T20:20:27.113Z,10.90
2019-04-10T20:22:55.692Z,10.90
2019-04-10T20:25:24.225Z,10.90
2019-04-10T20:27:52.617Z,10.90
2019-04-10T20:30:23.721Z,10.90
2019-04-10T20:32:52.467Z,10.90
2019-04-10T20:35:22.092Z,10.90
2019-04-10T20:37:51.261Z,10.90
2019-04-10T20:40:20.755Z,10.80
2019-04-10T20:42:49.244Z,10.80
2019-04-10T20:45:17.732Z,10.70
2019-04-10T20:47:46.923Z,10.60
2019-04-10T20:50:15.475Z,10.60
2019-04-10T20:52:45.198Z,10.50
2019-04-10T20:55:13.824Z,10.40
2019-04-10T20:57:42.235Z,10.40
2019-04-10T21:00:13.515Z,10.30
2019-04-10T21:02:42.641Z,10.30
2019-04-10T21:05:12.591Z,10.20
2019-04-10T21:07:41.706Z,10.20
2019-04-10T21:10:10.360Z,10.10
2019-04-10T21:12:39.786Z,10.10
2019-04-10T21:15:09.045Z,10.00
2019-04-10T21:17:37.578Z,10.00
2019-04-10T21:20:07.976Z,10.00
2019-04-10T21:22:36.813Z,9.90
2019-04-10T21:25:08.345Z,9.80
2019-04-10T21:27:37.635Z,9.80
2019-04-10T21:30:22.797Z,9.70
2019-04-10T21:32:55.292Z,9.70
2019-04-10T21:35:25.077Z,9.70
2019-04-10T21:37:53.500Z,9.70
2019-04-10T21:40:22.773Z,9.60
2019-04-10T21:42:51.898Z,9.60
2019-04-10T21:45:20.500Z,9.50
2019-04-10T21:47:50.262Z,9.40
2019-04-10T21:50:20.014Z,9.30
2019-04-10T21:52:49.669Z,9.20
2019-04-10T21:55:19.337Z,9.10
2019-04-10T21:57:48.895Z,9.00
2019-04-10T22:00:20.581Z,8.90
2019-04-10T22:02:49.090Z,8.90
2019-04-10T22:05:17.999Z,8.80
2019-04-10T22:08:16.826Z,8.70
2019-04-10T22:10:50.281Z,8.60
2019-04-10T22:13:19.778Z,8.40
2019-04-10T22:15:49.087Z,8.20
2019-04-10T22:18:18.026Z,8.10
2019-04-10T22:20:47.866Z,7.90
2019-04-10T22:23:16.383Z,7.80
2019-04-10T22:25:45.787Z,7.60
2019-04-10T22:28:14.929Z,7.60
2019-04-10T22:30:43.766Z,7.50
2019-04-10T22:33:12.228Z,7.40
2019-04-10T22:35:40.639Z,7.30
2019-04-10T22:38:09.063Z,7.20
2019-04-10T22:40:37.887Z,7.10
2019-04-10T22:43:07.400Z,7.00
2019-04-10T22:45:36.048Z,7.10
2019-04-10T22:48:04.719Z,6.90
2019-04-10T22:50:34.349Z,6.80
2019-04-10T22:53:03.056Z,6.80
2019-04-10T22:55:31.784Z,6.70
2019-04-10T22:58:00.341Z,6.50
2019-04-10T23:00:32.732Z,6.40
2019-04-10T23:03:02.875Z,6.60
2019-04-10T23:05:32.365Z,6.60
2019-04-10T23:08:01.182Z,6.60
2019-04-10T23:10:29.863Z,6.60
2019-04-10T23:13:02.895Z,6.60
2019-04-10T23:15:28.614Z,6.60
2019-04-10T23:17:57.330Z,6.90
2019-04-10T23:20:25.991Z,6.50
2019-04-10T23:22:54.822Z,6.50
2019-04-10T23:25:24.577Z,6.40
2019-04-10T23:27:55.920Z,6.30
2019-04-10T23:30:24.654Z,6.30
2019-04-10T23:32:53.516Z,6.20
2019-04-10T23:35:22.202Z,6.10
2019-04-10T23:37:51.140Z,6.20
2019-04-10T23:40:20.897Z,6.20
2019-04-10T23:43:02.149Z,6.20
2019-04-10T23:45:19.799Z,6.10
2019-04-10T23:47:48.716Z,6.10
2019-04-10T23:50:18.501Z,6.10
2019-04-10T23:52:47.941Z,6.00
2019-04-10T23:55:17.679Z,6.00
2019-04-10T23:57:46.418Z,5.90
